Time;durP1;ratioP1;P1;durP2;ratioP2;P2;SDS_P1;SDS_P2;PMS_P1;PMS_P2;Temp;Humidity;BMP_temperature;BMP_pressure;BME280_temperature;BME280_humidity;BME280_pressure;Samples;Min_cycle;Max_cycle;Signal;HPM_P1;HPM_P2
2020/12/24 00:00:54;;;;;;;15.83;10.38;;;;;;;2.93;75.73;100720.38;1746011;80;21141;-39
2020/12/24 00:03:21;;;;;;;16.32;9.75;;;;;;;2.93;75.81;100717.75;1733119;80;21133;-40
2020/12/24 00:05:49;;;;;;;18.27;10.68;;;;;;;2.92;75.77;100715.99;1749065;80;21145;-43
2020/12/24 00:08:16;;;;;;;12.88;9.28;;;;;;;2.91;75.80;100712.95;1741109;80;21118;-41
2020/12/24 00:10:44;;;;;;;14.50;9.48;;;;;;;2.93;75.73;100708.52;1736538;80;21170;-41
2020/12/24 00:13:11;;;;;;;12.73;8.10;;;;;;;2.96;75.80;100707.13;1703236;82;21158;-38
2020/12/24 00:15:39;;;;;;;18.07;9.33;;;;;;;2.98;75.71;100710.14;1741565;80;21145;-40
2020/12/24 00:18:08;;;;;;;15.60;11.25;;;;;;;2.99;75.70;100709.22;1747406;81;21134;-42
2020/12/24 00:20:36;;;;;;;15.98;9.40;;;;;;;3.00;75.80;100705.70;1737494;80;21517;-41
2020/12/24 00:23:04;;;;;;;17.65;11.03;;;;;;;3.00;76.17;100717.56;1741943;80;21177;-40
2020/12/24 00:25:33;;;;;;;15.70;10.43;;;;;;;2.98;76.17;100714.55;1743837;80;21149;-42
2020/12/24 00:28:00;;;;;;;18.15;11.08;;;;;;;2.94;76.17;100707.16;1712903;82;21181;-43
2020/12/24 00:30:28;;;;;;;15.40;10.03;;;;;;;2.91;76.25;100699.78;1729093;81;21562;-42
2020/12/24 00:32:55;;;;;;;16.23;10.30;;;;;;;2.88;76.49;100698.55;1735147;81;21153;-44
2020/12/24 00:35:23;;;;;;;15.03;10.65;;;;;;;2.84;76.60;100696.41;1724001;82;21588;-41
2020/12/24 00:37:50;;;;;;;17.95;11.03;;;;;;;2.83;76.50;100689.88;1732287;81;21134;-44
2020/12/24 00:40:18;;;;;;;16.23;10.25;;;;;;;2.83;76.40;100680.66;1731607;81;21553;-42
2020/12/24 00:42:45;;;;;;;16.97;9.28;;;;;;;2.83;76.48;100685.47;1728511;81;21154;-41
2020/12/24 00:45:13;;;;;;;17.70;9.88;;;;;;;2.85;76.31;100687.63;1720336;81;21137;-39
2020/12/24 00:47:40;;;;;;;14.78;9.35;;;;;;;2.86;76.30;100679.27;1725587;82;21162;-41
2020/12/24 00:50:08;;;;;;;16.95;10.88;;;;;;;2.86;76.45;100687.17;1726349;82;21565;-44
2020/12/24 00:52:38;;;;;;;18.98;9.78;;;;;;;2.86;76.26;100690.67;1733513;81;21569;-44
2020/12/24 00:55:07;;;;;;;14.95;10.08;;;;;;;2.86;76.29;100691.13;1734381;81;21161;-42
2020/12/24 00:57:35;;;;;;;17.32;10.00;;;;;;;2.85;76.25;100693.33;1731308;81;21134;-42
2020/12/24 01:00:05;;;;;;;15.85;9.25;;;;;;;2.84;76.18;100696.41;1709387;82;21134;-43
2020/12/24 01:02:33;;;;;;;14.43;9.43;;;;;;;2.84;76.15;100700.37;1731942;81;21133;-45
2020/12/24 01:05:01;;;;;;;14.65;8.93;;;;;;;2.86;76.10;100702.52;1731458;81;21669;-41
2020/12/24 01:07:29;;;;;;;15.20;9.90;;;;;;;2.87;76.11;100704.70;1730336;81;21546;-42
2020/12/24 01:09:59;;;;;;;14.25;9.08;;;;;;;2.89;76.00;100702.44;1726878;82;21276;-41
2020/12/24 01:12:26;;;;;;;14.25;10.10;;;;;;;2.89;75.98;100701.13;1736367;81;21569;-44
2020/12/24 01:14:54;;;;;;;16.70;10.10;;;;;;;2.90;75.99;100701.56;1735903;81;21137;-40
2020/12/24 01:17:22;;;;;;;14.75;9.53;;;;;;;2.93;75.91;100707.20;1737081;81;21134;-42
2020/12/24 01:19:49;;;;;;;14.50;9.35;;;;;;;2.95;75.79;100709.36;1708663;82;21145;-40
2020/12/24 01:22:17;;;;;;;17.75;9.83;;;;;;;2.97;75.76;100712.38;1734408;81;21130;-44
2020/12/24 01:24:44;;;;;;;14.95;9.78;;;;;;;2.98;75.69;100710.14;1733921;82;21469;-41
2020/12/24 01:29:56;;;;;;;17.02;10.70;;;;;;;3.04;75.64;100703.39;1883053;74;22853;-43
2020/12/24 01:32:24;;;;;;;17.07;10.80;;;;;;;3.03;75.58;100706.09;1884836;75;21141;-40
2020/12/24 01:34:52;;;;;;;14.30;8.88;;;;;;;3.04;75.52;100707.80;1882980;75;21134;-42
2020/12/24 01:37:19;;;;;;;13.93;9.08;;;;;;;3.04;75.46;100706.03;1868517;75;21172;-40
2020/12/24 01:39:48;;;;;;;15.30;9.58;;;;;;;3.05;75.44;100702.97;1806839;77;21182;-41
2020/12/24 01:42:18;;;;;;;15.55;10.50;;;;;;;3.02;75.42;100707.86;1811403;77;21200;-44
2020/12/24 01:44:47;;;;;;;;;;;;;;;3.03;75.40;100704.31;1833707;77;21141;-44
2020/12/24 01:47:15;;;;;;;15.50;9.75;;;;;;;3.02;75.38;100702.59;1793074;78;20262;-44
2020/12/24 01:49:43;;;;;;;14.13;8.75;;;;;;;3.04;75.59;100698.58;1825363;77;21126;-42
2020/12/24 01:52:34;;;;;;;16.82;9.40;;;;;;;3.01;75.38;100698.66;1833673;76;21665;-41
2020/12/24 01:55:11;;;;;;;14.13;9.55;;;;;;;3.00;75.52;100692.53;1810752;78;22858;-41
2020/12/24 01:57:39;;;;;;;14.15;9.10;;;;;;;2.96;75.68;100699.22;1774493;79;21143;-40
2020/12/24 02:00:10;;;;;;;15.08;10.28;;;;;;;2.97;75.50;100699.62;1780702;79;21110;-43
2020/12/24 02:02:40;;;;;;;16.70;10.48;;;;;;;2.98;75.54;100697.42;1785389;79;21541;-43
2020/12/24 02:05:08;;;;;;;12.13;8.90;;;;;;;2.96;75.61;100695.27;1780007;79;21521;-43
2020/12/24 02:07:35;;;;;;;13.53;8.98;;;;;;;2.95;75.62;100697.50;1779010;79;21133;-43
2020/12/24 02:10:03;;;;;;;15.13;8.90;;;;;;;2.97;75.60;100700.94;1771058;80;21134;-44
2020/12/24 02:12:31;;;;;;;15.85;10.03;;;;;;;2.98;75.63;100696.11;1780517;80;21146;-43
2020/12/24 02:14:58;;;;;;;14.47;8.98;;;;;;;2.98;75.63;100694.33;1775646;80;21145;-42
2020/12/24 02:17:26;;;;;;;15.70;8.90;;;;;;;3.00;75.61;100688.58;1720151;81;21133;-42
2020/12/24 02:19:53;;;;;;;15.38;10.63;;;;;;;3.02;75.57;100692.48;1727121;81;21569;-43
2020/12/24 02:22:21;;;;;;;15.10;9.38;;;;;;;3.02;75.62;100689.42;1715186;83;21166;-44
2020/12/24 02:24:48;;;;;;;11.85;8.58;;;;;;;3.03;75.57;100684.55;1696885;83;21137;-43
2020/12/24 02:27:16;;;;;;;12.28;8.25;;;;;;;3.03;75.55;100683.23;1695480;83;21621;-42
2020/12/24 02:29:43;;;;;;;15.55;10.03;;;;;;;3.03;75.51;100686.33;1693416;83;21144;-45
2020/12/24 02:32:11;;;;;;;13.38;8.58;;;;;;;3.06;75.45;100685.38;1703772;82;21154;-43
2020/12/24 02:34:39;;;;;;;11.97;8.23;;;;;;;3.09;75.45;100690.11;1712657;81;21661;-45
2020/12/24 02:37:09;;;;;;;13.32;9.33;;;;;;;3.11;75.29;100691.41;1723341;81;21165;-45
2020/12/24 02:39:36;;;;;;;16.17;9.18;;;;;;;3.11;75.23;100688.31;1717609;81;21182;-41
2020/12/24 02:42:03;;;;;;;15.18;9.60;;;;;;;3.12;75.21;100687.39;1713478;82;21590;-43
2020/12/24 02:44:31;;;;;;;14.73;9.33;;;;;;;3.12;75.23;100676.00;1720201;82;21695;-45
2020/12/24 02:46:58;;;;;;;15.20;9.08;;;;;;;3.10;75.19;100680.43;1721637;81;21145;-42
2020/12/24 02:49:28;;;;;;;13.28;9.18;;;;;;;3.10;75.16;100684.38;1708710;82;21183;-42
2020/12/24 02:51:55;;;;;;;14.98;9.68;;;;;;;3.11;75.15;100688.31;1715643;81;21904;-42
2020/12/24 02:54:23;;;;;;;13.45;9.53;;;;;;;3.14;75.10;100684.73;1692674;83;21205;-44
2020/12/24 02:56:51;;;;;;;13.20;9.35;;;;;;;3.14;75.09;100690.00;1691832;83;21158;-44
2020/12/24 02:59:19;;;;;;;15.55;9.45;;;;;;;3.14;75.04;100688.69;1692662;83;21150;-45
2020/12/24 03:01:47;;;;;;;14.45;9.00;;;;;;;3.17;75.00;100688.61;1675539;84;21164;-47
2020/12/24 03:04:14;;;;;;;13.60;8.90;;;;;;;3.19;74.97;100686.34;1701174;82;21158;-43
2020/12/24 03:06:42;;;;;;;13.68;9.03;;;;;;;3.21;74.93;100691.59;1693275;82;22105;-47
2020/12/24 03:09:09;;;;;;;13.88;8.23;;;;;;;3.21;74.89;100691.59;1699216;82;21154;-45
2020/12/24 03:11:46;;;;;;;15.15;8.65;;;;;;;3.22;74.82;100682.31;1734231;81;21165;-47
2020/12/24 03:14:14;;;;;;;15.38;10.13;;;;;;;3.25;74.79;100682.69;1735969;81;21618;-43
2020/12/24 03:16:41;;;;;;;13.15;9.65;;;;;;;3.27;74.73;100682.66;1701085;82;21173;-45
2020/12/24 03:19:09;;;;;;;14.78;8.30;;;;;;;3.27;74.70;100681.34;1733573;81;21158;-43
2020/12/24 03:21:36;;;;;;;12.82;7.97;;;;;;;3.27;74.65;100682.20;1700716;82;21146;-41
2020/12/24 03:24:05;;;;;;;14.03;9.55;;;;;;;3.27;74.63;100682.66;1699088;83;21591;-41
2020/12/24 03:26:33;;;;;;;11.97;8.38;;;;;;;3.26;74.61;100676.53;1739988;81;21522;-43
2020/12/24 03:29:00;;;;;;;15.48;9.53;;;;;;;3.28;74.62;100665.95;1735797;81;21149;-43
2020/12/24 03:31:28;;;;;;;15.30;9.35;;;;;;;3.29;74.61;100667.67;1698039;83;21154;-44
2020/12/24 03:33:56;;;;;;;13.35;8.80;;;;;;;3.29;74.58;100664.58;1670007;84;21170;-44
2020/12/24 03:36:24;;;;;;;20.82;10.38;;;;;;;3.29;74.55;100666.36;1671675;84;21140;-44
2020/12/24 03:38:52;;;;;;;15.55;9.15;;;;;;;3.29;74.53;100665.90;1734665;81;21150;-42
2020/12/24 03:41:19;;;;;;;12.73;8.63;;;;;;;3.31;74.50;100661.45;1699741;82;21466;-44
2020/12/24 03:43:47;;;;;;;15.65;9.75;;;;;;;3.32;74.48;100657.91;1737174;81;21154;-43
2020/12/24 03:46:14;;;;;;;13.83;8.70;;;;;;;3.33;74.44;100649.11;1737262;81;21154;-43
2020/12/24 03:48:42;;;;;;;13.78;8.70;;;;;;;3.33;74.38;100645.61;1697959;82;21143;-44
2020/12/24 03:51:09;;;;;;;13.70;9.40;;;;;;;3.33;74.39;100650.89;1737349;81;21131;-42
2020/12/24 03:53:36;;;;;;;15.45;9.38;;;;;;;3.31;74.42;100656.64;1738223;81;22100;-42
2020/12/24 03:56:04;;;;;;;16.10;10.60;;;;;;;3.29;75.17;100649.22;1741218;80;21126;-42
2020/12/24 03:58:32;;;;;;;13.48;9.00;;;;;;;3.25;74.69;100651.95;1739530;81;21181;-44
2020/12/24 04:01:00;;;;;;;13.48;9.18;;;;;;;3.25;74.68;100645.35;1737474;81;21140;-40
2020/12/24 04:03:27;;;;;;;14.53;9.35;;;;;;;3.27;74.65;100645.30;1738015;80;21158;-45
2020/12/24 04:05:55;;;;;;;14.87;9.00;;;;;;;3.27;74.72;100648.39;1736390;81;21581;-44
2020/12/24 04:08:24;;;;;;;13.78;9.03;;;;;;;3.23;74.88;100645.84;1738047;81;21157;-46
2020/12/24 04:10:51;;;;;;;13.75;9.35;;;;;;;3.22;74.89;100644.09;1742542;81;21134;-40
2020/12/24 04:13:19;;;;;;;14.58;9.90;;;;;;;3.24;74.80;100644.06;1740126;81;21140;-44
2020/12/24 04:15:47;;;;;;;15.95;10.15;;;;;;;3.25;74.78;100641.83;1738920;81;21146;-41
2020/12/24 04:18:14;;;;;;;15.30;9.33;;;;;;;3.27;74.73;100643.98;1717588;81;21142;-42
2020/12/24 04:20:44;;;;;;;13.38;8.43;;;;;;;3.28;74.72;100639.14;1735780;81;21275;-41
2020/12/24 04:23:11;;;;;;;15.83;9.28;;;;;;;3.27;74.68;100637.39;1739638;81;21105;-42
2020/12/24 04:25:39;;;;;;;13.35;9.70;;;;;;;3.28;74.78;100639.59;1739604;80;21153;-44
2020/12/24 04:28:06;;;;;;;17.25;10.72;;;;;;;3.23;74.90;100643.66;1738227;81;21158;-42
2020/12/24 04:30:35;;;;;;;12.88;9.48;;;;;;;3.19;75.10;100638.91;1739124;80;21165;-42
2020/12/24 04:33:03;;;;;;;15.50;9.23;;;;;;;3.14;75.31;100639.94;1739114;81;21578;-43
2020/12/24 04:35:31;;;;;;;14.93;9.80;;;;;;;3.10;75.41;100640.47;1736719;81;21118;-44
2020/12/24 04:37:58;;;;;;;13.65;9.35;;;;;;;3.08;75.41;100629.56;1739255;81;21490;-42
2020/12/24 04:40:26;;;;;;;12.23;8.38;;;;;;;3.07;75.43;100622.08;1739371;81;21574;-42
2020/12/24 04:42:53;;;;;;;12.95;8.43;;;;;;;3.08;75.37;100629.10;1737017;81;21501;-41
2020/12/24 04:45:21;;;;;;;10.45;7.08;;;;;;;3.06;75.38;100626.95;1740093;81;21641;-44
2020/12/24 04:47:49;;;;;;;12.58;8.18;;;;;;;3.01;75.41;100623.11;1737796;80;21146;-44
2020/12/24 04:50:17;;;;;;;11.45;6.65;;;;;;;2.99;75.47;100622.73;1696921;81;21154;-42
2020/12/24 04:52:45;;;;;;;12.25;8.20;;;;;;;2.99;75.55;100630.18;1739885;81;21492;-42
2020/12/24 04:55:12;;;;;;;13.43;7.97;;;;;;;3.02;75.50;100625.28;1737699;81;21117;-42
2020/12/24 04:57:40;;;;;;;12.60;7.33;;;;;;;3.02;75.53;100621.33;1741181;81;21178;-42
2020/12/24 05:00:07;;;;;;;13.70;7.85;;;;;;;3.02;75.56;100626.60;1739753;81;21122;-43
2020/12/24 05:02:34;;;;;;;11.08;7.65;;;;;;;3.01;75.66;100624.42;1739552;81;21181;-48
2020/12/24 05:05:03;;;;;;;12.23;8.33;;;;;;;3.01;75.69;100616.52;1736793;81;21141;-49
2020/12/24 05:07:31;;;;;;;10.90;7.00;;;;;;;3.01;75.75;100620.47;1738056;81;21764;-61
2020/12/24 05:09:59;;;;;;;12.05;7.42;;;;;;;3.01;75.82;100616.52;1740940;81;21153;-42
2020/12/24 05:12:31;;;;;;;10.40;7.35;;;;;;;3.02;75.88;100614.75;1737137;80;21139;-42
2020/12/24 05:14:58;;;;;;;10.48;6.65;;;;;;;3.01;76.01;100618.30;1737612;81;21698;-43
2020/12/24 05:17:26;;;;;;;9.78;7.00;;;;;;;3.01;75.99;100620.94;1736149;81;21705;-40
2020/12/24 05:20:03;;;;;;;10.85;7.03;;;;;;;3.03;75.98;100621.77;1739117;81;21130;-43
2020/12/24 05:22:31;;;;;;;10.30;6.60;;;;;;;3.06;76.01;100621.68;1736559;81;21142;-44
2020/12/24 05:25:18;;;;;;;10.38;6.72;;;;;;;3.07;76.04;100618.59;1742147;81;21186;-41
2020/12/24 05:27:41;;;;;;;9.38;6.45;;;;;;;3.06;76.08;100614.23;1741136;81;21144;-41
2020/12/24 05:30:09;;;;;;;9.48;6.85;;;;;;;3.05;76.10;100621.28;1742913;81;21638;-44
2020/12/24 05:32:39;;;;;;;11.50;6.92;;;;;;;3.04;76.17;100620.84;1742337;80;21140;-42
2020/12/24 05:35:12;;;;;;;11.43;7.80;;;;;;;3.04;76.16;100619.07;1742326;81;21146;-43
2020/12/24 05:37:40;;;;;;;11.73;7.72;;;;;;;3.04;76.25;100623.02;1739054;81;21143;-45
2020/12/24 05:40:27;;;;;;;11.43;7.75;;;;;;;3.02;76.24;100630.13;1738047;81;21142;-42
2020/12/24 05:43:01;;;;;;;11.35;7.65;;;;;;;3.00;76.40;100628.44;1741239;81;21600;-42
2020/12/24 05:45:33;;;;;;;9.95;7.33;;;;;;;3.01;76.25;100628.84;1738282;81;21613;-42
2020/12/24 05:48:10;;;;;;;11.00;7.35;;;;;;;3.02;76.24;100623.97;1735766;81;21146;-41
2020/12/24 05:50:38;;;;;;;10.28;7.55;;;;;;;3.02;76.44;100635.40;1734139;81;21124;-42
2020/12/24 05:53:14;;;;;;;12.35;8.18;;;;;;;3.01;76.52;100642.87;1733702;80;21139;-43
2020/12/24 05:55:42;;;;;;;10.90;7.60;;;;;;;2.97;76.80;100642.55;1745663;81;21680;-43
2020/12/24 05:58:10;;;;;;;10.48;6.90;;;;;;;2.96;77.10;100643.89;1750112;81;21116;-45
2020/12/24 06:01:19;;;;;;;;;;;;;;;;;;;;;
2020/12/24 06:04:47;;;;;;;11.90;7.22;;;;;;;2.94;77.17;100653.14;1606447;87;21505;-46
2020/12/24 06:07:29;;;;;;;11.68;7.80;;;;;;;3.00;77.14;100644.25;1762696;79;24179;-41
2020/12/24 06:10:07;;;;;;;11.63;7.58;;;;;;;2.96;77.33;100647.84;1738007;80;21141;-46
2020/12/24 06:12:51;;;;;;;13.85;7.42;;;;;;;2.96;77.35;100639.94;1736182;80;21665;-45
2020/12/24 06:15:19;;;;;;;12.33;7.42;;;;;;;2.96;77.70;100632.90;1737863;80;21162;-52
2020/12/24 06:17:47;;;;;;;10.25;6.37;;;;;;;2.98;77.36;100614.43;1738317;80;21149;-44
2020/12/24 06:20:18;;;;;;;10.25;7.12;;;;;;;3.01;77.13;100618.30;1740861;80;21154;-42
2020/12/24 06:22:46;;;;;;;8.65;5.83;;;;;;;3.02;77.04;100615.64;1732254;80;21464;-46
2020/12/24 06:25:14;;;;;;;10.20;7.10;;;;;;;3.03;76.97;100614.72;1727376;82;21569;-45
2020/12/24 06:27:49;;;;;;;11.95;7.72;;;;;;;3.07;76.92;100616.81;1731123;81;21658;-47
2020/12/24 06:30:26;;;;;;;10.50;6.90;;;;;;;3.09;77.16;100619.42;1675535;84;21164;-46
2020/12/24 06:32:55;;;;;;;10.05;7.53;;;;;;;3.13;77.26;100617.13;1676867;84;21157;-45
2020/12/24 06:35:36;;;;;;;10.20;6.72;;;;;;;3.19;77.33;100610.37;1677918;84;21915;-44
2020/12/24 06:38:07;;;;;;;10.50;6.95;;;;;;;3.22;77.79;100611.60;1676647;84;21166;-42
2020/12/24 06:40:40;;;;;;;11.03;6.87;;;;;;;3.16;77.24;100622.31;1678118;84;21205;-44
2020/12/24 06:43:08;;;;;;;9.50;6.65;;;;;;;3.12;77.19;100614.92;1679648;84;21605;-43
2020/12/24 06:45:40;;;;;;;9.30;6.83;;;;;;;3.12;77.44;100608.34;1679517;84;21649;-44
2020/12/24 06:48:16;;;;;;;8.65;6.30;;;;;;;3.12;77.41;100606.16;1680849;84;21161;-44
2020/12/24 06:50:49;;;;;;;10.63;7.28;;;;;;;3.10;77.86;100600.05;1680538;84;21335;-45
2020/12/24 06:53:29;;;;;;;8.95;6.12;;;;;;;3.08;77.27;100601.44;1676901;84;21201;-44
2020/12/24 06:56:27;;;;;;;9.30;6.08;;;;;;;3.09;77.11;100602.30;1682936;84;21134;-44
2020/12/24 06:59:01;;;;;;;11.78;7.58;;;;;;;3.09;77.01;100598.34;1677259;84;21190;-45
2020/12/24 07:01:30;;;;;;;11.53;6.45;;;;;;;3.12;77.21;100606.16;1675453;84;21582;-43
2020/12/24 07:04:00;;;;;;;9.70;6.45;;;;;;;3.17;77.17;100609.54;1676498;84;21142;-40
2020/12/24 07:06:50;;;;;;;10.00;6.12;;;;;;;3.25;77.13;100608.88;1675481;84;21158;-39
2020/12/24 07:09:29;;;;;;;11.43;7.58;;;;;;;3.30;76.99;100597.80;1657502;85;21146;-39
2020/12/24 07:11:57;;;;;;;11.53;7.10;;;;;;;3.34;76.81;100594.61;1659496;85;21332;-39
2020/12/24 07:14:35;;;;;;;9.88;7.45;;;;;;;3.37;76.80;100590.10;1667861;85;21182;-41
2020/12/24 07:17:17;;;;;;;10.65;6.50;;;;;;;3.37;76.70;100594.52;1666191;84;21181;-39
2020/12/24 07:19:46;;;;;;;12.20;7.40;;;;;;;3.37;76.59;100598.47;1662838;85;21166;-39
2020/12/24 07:22:16;;;;;;;10.63;6.87;;;;;;;3.36;76.54;100592.34;1663117;84;21186;-38
2020/12/24 07:24:50;;;;;;;11.68;6.97;;;;;;;3.35;76.63;100597.22;1662880;84;21166;-40
2020/12/24 07:27:18;;;;;;;13.88;8.25;;;;;;;3.32;76.73;100593.78;1665821;84;21842;-46
2020/12/24 07:29:46;;;;;;;9.10;5.53;;;;;;;3.30;76.71;100591.62;1668547;84;21605;-43
2020/12/24 07:32:14;;;;;;;8.45;5.97;;;;;;;3.31;76.54;100589.42;1671410;83;21143;-43
2020/12/24 07:34:41;;;;;;;12.25;8.08;;;;;;;3.27;76.47;100585.98;1660625;85;21656;-44
2020/12/24 07:37:09;;;;;;;11.28;7.58;;;;;;;3.24;76.40;100588.71;1666203;85;21159;-43
2020/12/24 07:39:37;;;;;;;11.97;7.60;;;;;;;3.24;76.37;100582.13;1665115;85;21157;-44
2020/12/24 07:42:04;;;;;;;10.20;7.60;;;;;;;3.22;76.33;100587.88;1679301;83;21455;-43
2020/12/24 07:44:32;;;;;;;12.50;7.75;;;;;;;3.20;76.36;100583.98;1668399;85;21724;-43
2020/12/24 07:47:02;;;;;;;12.73;8.13;;;;;;;3.20;76.32;100577.40;1670368;84;21207;-44
2020/12/24 07:49:29;;;;;;;10.23;7.78;;;;;;;3.17;76.33;100581.41;1666308;85;21433;-44
2020/12/24 07:51:58;;;;;;;10.25;7.37;;;;;;;3.16;76.34;100592.87;1670866;84;21123;-45
2020/12/24 07:57:09;;;;;;;11.05;6.72;;;;;;;3.22;76.39;100587.42;1802297;77;22841;-42
2020/12/24 07:59:41;;;;;;;9.05;5.92;;;;;;;3.19;76.37;100587.97;1776056;78;21782;-42
2020/12/24 08:02:10;;;;;;;11.00;6.62;;;;;;;3.21;76.35;100592.75;1777456;79;21151;-44
2020/12/24 08:04:37;;;;;;;9.25;6.83;;;;;;;3.20;76.45;100598.91;1776383;78;21760;-42
2020/12/24 08:07:06;;;;;;;10.85;6.45;;;;;;;3.19;76.38;100590.61;1777415;78;21549;-42
2020/12/24 08:09:37;;;;;;;9.88;6.17;;;;;;;3.18;76.37;100592.38;1783948;78;21129;-41
2020/12/24 08:12:04;;;;;;;13.00;6.25;;;;;;;3.17;76.32;100590.63;1755069;78;21133;-43
2020/12/24 08:14:32;;;;;;;9.03;6.03;;;;;;;3.17;76.30;100596.36;1746144;80;21141;-42
2020/12/24 08:17:12;;;;;;;10.72;7.00;;;;;;;3.19;76.29;100598.52;1745825;80;21134;-43
2020/12/24 08:19:44;;;;;;;9.75;6.87;;;;;;;3.19;76.25;100591.92;1740649;80;21143;-42
2020/12/24 08:22:41;;;;;;;8.13;5.08;;;;;;;3.21;76.28;100594.92;1719873;81;21131;-42
2020/12/24 08:25:08;;;;;;;6.20;4.22;;;;;;;3.21;76.16;100585.70;1711064;81;21167;-41
2020/12/24 08:27:36;;;;;;;7.08;5.30;;;;;;;3.18;75.92;100593.70;1693335;83;21128;-42
2020/12/24 08:30:06;;;;;;;6.60;4.95;;;;;;;3.15;75.95;100600.38;1668517;83;21510;-42
2020/12/24 08:32:33;;;;;;;9.23;5.75;;;;;;;3.17;75.96;100607.77;1693128;83;21162;-44
2020/12/24 08:35:14;;;;;;;6.47;4.90;;;;;;;3.19;76.00;100608.59;1714272;81;21197;-45
2020/12/24 08:37:41;;;;;;;6.83;4.62;;;;;;;3.20;75.96;100609.02;1723902;82;22132;-41
2020/12/24 08:40:25;;;;;;;8.38;5.53;;;;;;;3.21;75.91;100607.25;1715713;82;21167;-44
2020/12/24 08:42:59;;;;;;;10.35;4.87;;;;;;;3.23;75.90;100600.17;1697197;83;21154;-45
2020/12/24 08:45:27;;;;;;;7.95;5.10;;;;;;;3.23;75.83;100598.39;1714138;82;21600;-42
2020/12/24 08:47:54;;;;;;;7.78;4.90;;;;;;;3.26;75.85;100594.81;1709294;81;21137;-43
2020/12/24 08:50:33;;;;;;;7.83;5.22;;;;;;;3.30;75.78;100579.34;1672188;82;21321;-43
2020/12/24 08:53:05;;;;;;;6.97;4.85;;;;;;;3.33;75.77;100579.70;1719434;81;21114;-44
2020/12/24 08:55:33;;;;;;;7.45;5.35;;;;;;;3.34;75.54;100584.92;1709217;82;21188;-43
2020/12/24 08:58:00;;;;;;;8.80;5.83;;;;;;;3.31;75.49;100569.19;1734162;80;21182;-41
2020/12/24 09:00:28;;;;;;;8.28;5.90;;;;;;;3.28;75.42;100558.73;1732273;81;21170;-42
2020/12/24 09:02:56;;;;;;;7.45;4.80;;;;;;;3.23;75.45;100549.63;1677754;83;21159;-42
2020/12/24 09:05:25;;;;;;;9.68;6.40;;;;;;;3.23;75.44;100543.50;1736996;80;21153;-41
2020/12/24 09:07:53;;;;;;;8.50;5.42;;;;;;;3.20;75.42;100543.13;1731924;80;21137;-42
2020/12/24 09:10:25;;;;;;;7.65;5.28;;;;;;;3.19;75.46;100536.11;1733190;80;21518;-41
2020/12/24 09:12:58;;;;;;;7.53;5.25;;;;;;;3.14;75.51;100537.15;1672990;83;21236;-43
2020/12/24 09:15:26;;;;;;;6.30;4.97;;;;;;;3.10;75.63;100535.06;1738600;81;21127;-42
2020/12/24 09:17:55;;;;;;;4.33;3.50;;;;;;;3.09;75.65;100531.14;1734483;80;21122;-45
2020/12/24 09:20:25;;;;;;;6.55;4.92;;;;;;;3.11;75.67;100531.97;1724359;81;21150;-44
2020/12/24 09:22:56;;;;;;;7.30;5.05;;;;;;;3.11;75.71;100528.87;1732538;80;21153;-42
2020/12/24 09:25:41;;;;;;;9.28;6.42;;;;;;;3.12;75.63;100526.64;1727602;80;21618;-43
2020/12/24 09:28:27;;;;;;;6.80;4.10;;;;;;;3.11;75.65;100514.38;1731208;80;21153;-43
2020/12/24 09:31:00;;;;;;;7.22;4.55;;;;;;;3.12;75.58;100517.88;1739671;80;21613;-39
2020/12/24 09:33:28;;;;;;;6.30;5.00;;;;;;;3.14;75.58;100513.44;1731396;80;21987;-41
2020/12/24 09:35:56;;;;;;;5.60;4.22;;;;;;;3.16;75.54;100508.53;1733754;81;21677;-44
2020/12/24 09:38:24;;;;;;;7.22;4.35;;;;;;;3.19;75.58;100506.27;1734017;80;21130;-43
2020/12/24 09:40:52;;;;;;;5.60;4.17;;;;;;;3.20;75.57;100503.59;1736664;80;21170;-43
2020/12/24 09:43:19;;;;;;;5.55;4.22;;;;;;;3.19;75.45;100500.53;1733222;80;21166;-43
2020/12/24 09:45:51;;;;;;;4.70;3.70;;;;;;;3.16;75.47;100495.81;1675404;83;21142;-44
2020/12/24 09:48:22;;;;;;;5.78;3.85;;;;;;;3.13;75.57;100496.77;1735096;80;21142;-42
2020/12/24 09:50:50;;;;;;;6.35;4.53;;;;;;;3.13;75.61;100497.22;1672142;84;21552;-42
2020/12/24 09:53:17;;;;;;;6.47;4.40;;;;;;;3.12;75.72;100499.42;1738971;80;21157;-45
2020/12/24 09:55:45;;;;;;;4.75;3.83;;;;;;;3.13;75.81;100502.03;1734117;80;21158;-45
2020/12/24 09:58:12;;;;;;;5.67;4.33;;;;;;;3.14;75.79;100492.34;1733750;80;21122;-47
2020/12/24 10:00:40;;;;;;;6.72;4.65;;;;;;;3.12;75.74;100489.74;1734553;81;21145;-42
2020/12/24 10:03:07;;;;;;;6.55;3.67;;;;;;;3.09;75.85;100487.20;1734733;80;21118;-43
2020/12/24 10:05:35;;;;;;;7.17;5.05;;;;;;;3.06;75.96;100486.44;1736154;80;21144;-42
2020/12/24 10:08:03;;;;;;;11.03;5.55;;;;;;;3.06;76.08;100490.39;1734393;80;21125;-40
2020/12/24 10:10:32;;;;;;;8.45;5.83;;;;;;;3.07;76.14;100482.42;1737131;80;21687;-41
2020/12/24 10:12:59;;;;;;;8.70;6.05;;;;;;;3.11;76.14;100481.44;1735123;80;21156;-40
2020/12/24 10:15:27;;;;;;;8.43;5.72;;;;;;;3.11;76.12;100480.13;1678346;84;21181;-44
2020/12/24 10:17:56;;;;;;;8.38;5.25;;;;;;;3.09;76.11;100469.22;1739898;80;21633;-42
2020/12/24 10:20:24;;;;;;;7.65;5.47;;;;;;;3.09;76.13;100473.16;1739662;80;21617;-41
2020/12/24 10:22:52;;;;;;;8.30;5.60;;;;;;;3.11;76.17;100464.77;1739240;80;21149;-43
2020/12/24 10:25:21;;;;;;;8.93;6.47;;;;;;;3.12;76.23;100455.95;1738878;80;21600;-43
2020/12/24 10:27:48;;;;;;;7.62;5.42;;;;;;;3.18;76.17;100451.38;1735552;80;21157;-44
2020/12/24 10:30:17;;;;;;;8.40;6.20;;;;;;;3.25;76.13;100446.77;1737580;80;21153;-40
2020/12/24 10:32:45;;;;;;;8.40;6.15;;;;;;;3.27;75.93;100439.69;1739688;80;21177;-44
2020/12/24 10:35:12;;;;;;;8.03;5.17;;;;;;;3.25;75.78;100433.59;1740455;80;21149;-40
2020/12/24 10:37:40;;;;;;;6.90;5.15;;;;;;;3.20;75.82;100432.44;1741894;80;21153;-41
2020/12/24 10:40:08;;;;;;;10.10;6.95;;;;;;;3.19;75.86;100428.52;1741778;80;21161;-43
2020/12/24 10:42:38;;;;;;;7.12;5.62;;;;;;;3.20;75.81;100431.55;1734283;80;21161;-42
2020/12/24 10:45:05;;;;;;;6.83;5.12;;;;;;;3.19;75.81;100422.78;1738485;80;21114;-43
2020/12/24 10:47:33;;;;;;;10.63;6.55;;;;;;;3.19;75.75;100415.34;1740010;80;21418;-41
2020/12/24 10:50:03;;;;;;;9.28;6.05;;;;;;;3.19;75.75;100417.52;1735019;80;21601;-44
2020/12/24 10:52:32;;;;;;;9.13;6.40;;;;;;;3.19;75.76;100418.83;1677130;84;21301;-44
2020/12/24 10:55:04;;;;;;;7.95;5.45;;;;;;;3.20;75.75;100419.26;1674373;83;21166;-44
2020/12/24 11:00:23;;;;;;;7.87;5.53;;;;;;;3.22;75.65;100412.14;1886089;74;23632;-44
2020/12/24 11:02:53;;;;;;;9.53;6.72;;;;;;;3.17;75.66;100404.83;1860438;75;21112;-44
2020/12/24 11:05:25;;;;;;;6.72;4.92;;;;;;;3.15;75.58;100395.23;1858132;75;21106;-43
2020/12/24 11:07:53;;;;;;;9.20;5.78;;;;;;;3.15;75.66;100389.97;1858380;75;21620;-45
2020/12/24 11:10:21;;;;;;;7.12;5.35;;;;;;;3.10;75.61;100384.86;1847009;75;21104;-44
2020/12/24 11:12:48;;;;;;;9.88;7.00;;;;;;;3.08;75.67;100381.40;1845359;75;21104;-43
2020/12/24 11:15:16;;;;;;;8.23;6.72;;;;;;;3.06;75.70;100383.67;1867033;75;21129;-44
2020/12/24 11:17:44;;;;;;;8.60;6.17;;;;;;;3.03;75.64;100384.62;1865486;74;21152;-44
2020/12/24 11:20:12;;;;;;;8.00;6.30;;;;;;;3.00;75.71;100376.81;1792520;77;21149;-45
2020/12/24 11:22:39;;;;;;;7.92;5.92;;;;;;;2.99;75.84;100378.56;1810718;76;21875;-44
2020/12/24 11:25:07;;;;;;;9.78;6.62;;;;;;;3.03;75.95;100372.77;1795577;77;21646;-44
2020/12/24 11:27:34;;;;;;;9.15;7.17;;;;;;;3.02;75.87;100361.80;1765257;79;21598;-42
2020/12/24 11:30:05;;;;;;;8.23;6.12;;;;;;;3.03;75.81;100364.86;1760118;79;21165;-43
2020/12/24 11:32:51;;;;;;;9.73;6.45;;;;;;;3.03;75.82;100354.32;1775852;79;21270;-42
2020/12/24 11:35:24;;;;;;;7.87;6.03;;;;;;;3.02;75.75;100345.56;1763702;79;21156;-44
2020/12/24 11:37:55;;;;;;;8.35;6.10;;;;;;;3.03;75.75;100355.18;1788033;79;21757;-43
2020/12/24 11:40:22;;;;;;;13.40;9.53;;;;;;;3.02;75.68;100356.10;1791719;78;21976;-43
2020/12/24 11:42:51;;;;;;;9.75;6.87;;;;;;;3.02;75.79;100349.94;1795866;78;21209;-44
2020/12/24 11:45:18;;;;;;;10.18;7.53;;;;;;;3.01;75.67;100344.28;1789393;78;21195;-42
2020/12/24 11:47:47;;;;;;;14.18;11.75;;;;;;;3.01;75.68;100342.50;1792481;77;21183;-42
2020/12/24 11:50:15;;;;;;;10.30;7.50;;;;;;;3.03;75.72;100343.32;1776004;78;21174;-40